sensor_id;sensor_type;location;lat;lon;timestamp;P1;durP1;ratioP1;P2;durP2;ratioP2
84054;SDS011;74141;51.504;7.122;2023-12-20T00:01:14;37.47;;;16.73;;
84054;SDS011;74141;51.504;7.122;2023-12-20T00:03:39;34.53;;;16.08;;
84054;SDS011;74141;51.504;7.122;2023-12-20T00:06:05;42.43;;;19.87;;
84054;SDS011;74141;51.504;7.122;2023-12-20T00:08:30;42.25;;;19.60;;
84054;SDS011;74141;51.504;7.122;2023-12-20T00:10:55;34.45;;;18.63;;
84054;SDS011;74141;51.504;7.122;2023-12-20T00:13:21;39.17;;;17.37;;
84054;SDS011;74141;51.504;7.122;2023-12-20T00:15:46;33.43;;;16.60;;
84054;SDS011;74141;51.504;7.122;2023-12-20T00:18:11;33.40;;;15.83;;
84054;SDS011;74141;51.504;7.122;2023-12-20T00:20:36;26.90;;;13.63;;
84054;SDS011;74141;51.504;7.122;2023-12-20T00:23:02;30.40;;;14.90;;
84054;SDS011;74141;51.504;7.122;2023-12-20T00:25:28;28.95;;;13.75;;
84054;SDS011;74141;51.504;7.122;2023-12-20T00:27:53;29.50;;;12.53;;
84054;SDS011;74141;51.504;7.122;2023-12-20T00:30:18;25.48;;;12.52;;
84054;SDS011;74141;51.504;7.122;2023-12-20T00:32:44;26.35;;;12.10;;
84054;SDS011;74141;51.504;7.122;2023-12-20T00:35:14;21.40;;;10.98;;
84054;SDS011;74141;51.504;7.122;2023-12-20T00:37:42;26.45;;;12.68;;
84054;SDS011;74141;51.504;7.122;2023-12-20T00:40:08;24.75;;;10.48;;
84054;SDS011;74141;51.504;7.122;2023-12-20T00:42:34;21.70;;;10.68;;
84054;SDS011;74141;51.504;7.122;2023-12-20T00:44:59;17.13;;;8.77;;
84054;SDS011;74141;51.504;7.122;2023-12-20T00:47:25;22.17;;;9.50;;
84054;SDS011;74141;51.504;7.122;2023-12-20T00:49:50;19.77;;;9.27;;
84054;SDS011;74141;51.504;7.122;2023-12-20T00:52:16;24.23;;;10.70;;
84054;SDS011;74141;51.504;7.122;2023-12-20T00:54:44;19.48;;;10.07;;
84054;SDS011;74141;51.504;7.122;2023-12-20T00:57:10;24.45;;;10.43;;
84054;SDS011;74141;51.504;7.122;2023-12-20T00:59:35;24.92;;;10.98;;
84054;SDS011;74141;51.504;7.122;2023-12-20T01:02:01;21.58;;;10.43;;
84054;SDS011;74141;51.504;7.122;2023-12-20T01:04:26;21.02;;;10.18;;
84054;SDS011;74141;51.504;7.122;2023-12-20T01:06:52;25.15;;;10.20;;
84054;SDS011;74141;51.504;7.122;2023-12-20T01:09:17;21.92;;;10.20;;
84054;SDS011;74141;51.504;7.122;2023-12-20T01:11:43;27.20;;;11.45;;
84054;SDS011;74141;51.504;7.122;2023-12-20T01:14:08;21.30;;;9.93;;
84054;SDS011;74141;51.504;7.122;2023-12-20T01:16:34;21.92;;;9.93;;
84054;SDS011;74141;51.504;7.122;2023-12-20T01:18:59;23.00;;;10.23;;
84054;SDS011;74141;51.504;7.122;2023-12-20T01:21:24;23.20;;;9.67;;
84054;SDS011;74141;51.504;7.122;2023-12-20T01:23:50;25.20;;;9.73;;
84054;SDS011;74141;51.504;7.122;2023-12-20T01:26:15;20.20;;;9.52;;
84054;SDS011;74141;51.504;7.122;2023-12-20T01:28:41;19.58;;;9.55;;
84054;SDS011;74141;51.504;7.122;2023-12-20T01:31:07;18.48;;;9.27;;
84054;SDS011;74141;51.504;7.122;2023-12-20T01:33:32;21.67;;;9.77;;
84054;SDS011;74141;51.504;7.122;2023-12-20T01:35:57;18.70;;;8.73;;
84054;SDS011;74141;51.504;7.122;2023-12-20T01:38:22;21.30;;;9.70;;
84054;SDS011;74141;51.504;7.122;2023-12-20T01:40:48;17.17;;;7.83;;
84054;SDS011;74141;51.504;7.122;2023-12-20T01:43:13;19.40;;;9.00;;
84054;SDS011;74141;51.504;7.122;2023-12-20T01:45:38;20.30;;;8.57;;
84054;SDS011;74141;51.504;7.122;2023-12-20T01:48:04;17.88;;;9.57;;
84054;SDS011;74141;51.504;7.122;2023-12-20T01:50:31;15.93;;;8.30;;
84054;SDS011;74141;51.504;7.122;2023-12-20T01:52:58;14.70;;;7.03;;
84054;SDS011;74141;51.504;7.122;2023-12-20T01:55:25;16.88;;;8.95;;
84054;SDS011;74141;51.504;7.122;2023-12-20T01:57:54;22.17;;;7.30;;
84054;SDS011;74141;51.504;7.122;2023-12-20T02:00:20;24.42;;;7.22;;
84054;SDS011;74141;51.504;7.122;2023-12-20T02:02:48;13.98;;;7.05;;
84054;SDS011;74141;51.504;7.122;2023-12-20T02:05:15;18.35;;;6.68;;
84054;SDS011;74141;51.504;7.122;2023-12-20T02:07:41;14.93;;;7.50;;
84054;SDS011;74141;51.504;7.122;2023-12-20T02:10:13;18.97;;;7.23;;
84054;SDS011;74141;51.504;7.122;2023-12-20T02:12:38;18.40;;;7.57;;
84054;SDS011;74141;51.504;7.122;2023-12-20T02:15:12;15.18;;;7.50;;
84054;SDS011;74141;51.504;7.122;2023-12-20T02:17:38;22.00;;;8.05;;
84054;SDS011;74141;51.504;7.122;2023-12-20T02:20:10;13.15;;;7.15;;
84054;SDS011;74141;51.504;7.122;2023-12-20T02:22:36;15.25;;;6.65;;
84054;SDS011;74141;51.504;7.122;2023-12-20T02:25:10;15.70;;;6.57;;
84054;SDS011;74141;51.504;7.122;2023-12-20T02:27:36;14.68;;;8.30;;
84054;SDS011;74141;51.504;7.122;2023-12-20T02:30:13;18.42;;;6.00;;
84054;SDS011;74141;51.504;7.122;2023-12-20T02:32:39;17.25;;;8.10;;
84054;SDS011;74141;51.504;7.122;2023-12-20T02:35:13;14.80;;;6.75;;
84054;SDS011;74141;51.504;7.122;2023-12-20T02:37:39;15.88;;;7.00;;
84054;SDS011;74141;51.504;7.122;2023-12-20T02:40:13;22.00;;;8.27;;
84054;SDS011;74141;51.504;7.122;2023-12-20T02:42:38;15.13;;;7.45;;
84054;SDS011;74141;51.504;7.122;2023-12-20T02:45:12;19.87;;;7.33;;
84054;SDS011;74141;51.504;7.122;2023-12-20T02:47:38;12.18;;;6.35;;
84054;SDS011;74141;51.504;7.122;2023-12-20T02:50:12;21.00;;;8.57;;
84054;SDS011;74141;51.504;7.122;2023-12-20T02:52:38;20.33;;;9.10;;
84054;SDS011;74141;51.504;7.122;2023-12-20T02:55:12;22.95;;;8.60;;
84054;SDS011;74141;51.504;7.122;2023-12-20T02:57:38;18.30;;;8.68;;
84054;SDS011;74141;51.504;7.122;2023-12-20T03:00:07;24.58;;;9.30;;
84054;SDS011;74141;51.504;7.122;2023-12-20T03:02:34;18.25;;;8.60;;
84054;SDS011;74141;51.504;7.122;2023-12-20T03:04:59;17.67;;;8.27;;
84054;SDS011;74141;51.504;7.122;2023-12-20T03:07:25;19.48;;;10.88;;
84054;SDS011;74141;51.504;7.122;2023-12-20T03:09:50;20.07;;;9.40;;
84054;SDS011;74141;51.504;7.122;2023-12-20T03:12:15;20.10;;;9.13;;
84054;SDS011;74141;51.504;7.122;2023-12-20T03:14:41;21.13;;;9.80;;
84054;SDS011;74141;51.504;7.122;2023-12-20T03:17:06;18.90;;;10.83;;
84054;SDS011;74141;51.504;7.122;2023-12-20T03:19:31;12.60;;;8.10;;
84054;SDS011;74141;51.504;7.122;2023-12-20T03:21:56;21.17;;;8.90;;
84054;SDS011;74141;51.504;7.122;2023-12-20T03:24:22;20.45;;;9.05;;
84054;SDS011;74141;51.504;7.122;2023-12-20T03:26:47;23.52;;;9.45;;
84054;SDS011;74141;51.504;7.122;2023-12-20T03:29:12;24.03;;;10.00;;
84054;SDS011;74141;51.504;7.122;2023-12-20T03:31:38;24.80;;;9.20;;
84054;SDS011;74141;51.504;7.122;2023-12-20T03:34:03;15.33;;;7.83;;
84054;SDS011;74141;51.504;7.122;2023-12-20T03:36:28;23.37;;;9.00;;
84054;SDS011;74141;51.504;7.122;2023-12-20T03:38:53;24.50;;;8.30;;
84054;SDS011;74141;51.504;7.122;2023-12-20T03:41:19;22.40;;;7.50;;
84054;SDS011;74141;51.504;7.122;2023-12-20T03:43:44;15.38;;;6.68;;
84054;SDS011;74141;51.504;7.122;2023-12-20T03:46:09;26.73;;;8.43;;
84054;SDS011;74141;51.504;7.122;2023-12-20T03:48:35;14.95;;;7.00;;
84054;SDS011;74141;51.504;7.122;2023-12-20T03:51:00;12.82;;;6.53;;
84054;SDS011;74141;51.504;7.122;2023-12-20T03:53:25;18.27;;;5.78;;
84054;SDS011;74141;51.504;7.122;2023-12-20T03:55:51;15.17;;;5.70;;
84054;SDS011;74141;51.504;7.122;2023-12-20T03:58:16;17.35;;;7.95;;
84054;SDS011;74141;51.504;7.122;2023-12-20T04:00:41;14.97;;;5.70;;
84054;SDS011;74141;51.504;7.122;2023-12-20T04:03:06;17.80;;;5.83;;
84054;SDS011;74141;51.504;7.122;2023-12-20T04:05:32;13.10;;;5.65;;
84054;SDS011;74141;51.504;7.122;2023-12-20T04:07:57;27.17;;;5.75;;
84054;SDS011;74141;51.504;7.122;2023-12-20T04:10:24;13.93;;;5.53;;
84054;SDS011;74141;51.504;7.122;2023-12-20T04:12:49;13.93;;;5.53;;
84054;SDS011;74141;51.504;7.122;2023-12-20T04:15:15;26.10;;;5.47;;
84054;SDS011;74141;51.504;7.122;2023-12-20T04:17:40;23.55;;;6.10;;
84054;SDS011;74141;51.504;7.122;2023-12-20T04:20:05;12.10;;;5.20;;
84054;SDS011;74141;51.504;7.122;2023-12-20T04:22:31;18.00;;;5.93;;
84054;SDS011;74141;51.504;7.122;2023-12-20T04:24:56;21.33;;;6.60;;
84054;SDS011;74141;51.504;7.122;2023-12-20T04:27:22;26.10;;;6.73;;
84054;SDS011;74141;51.504;7.122;2023-12-20T04:29:47;15.30;;;7.65;;
84054;SDS011;74141;51.504;7.122;2023-12-20T04:32:12;16.17;;;5.97;;
84054;SDS011;74141;51.504;7.122;2023-12-20T04:34:38;13.03;;;6.00;;
84054;SDS011;74141;51.504;7.122;2023-12-20T04:37:03;15.00;;;6.07;;
84054;SDS011;74141;51.504;7.122;2023-12-20T04:39:28;11.15;;;5.10;;
84054;SDS011;74141;51.504;7.122;2023-12-20T04:41:54;15.43;;;6.22;;
84054;SDS011;74141;51.504;7.122;2023-12-20T04:44:19;14.10;;;6.32;;
84054;SDS011;74141;51.504;7.122;2023-12-20T04:46:44;20.57;;;6.33;;
84054;SDS011;74141;51.504;7.122;2023-12-20T04:49:10;19.67;;;6.53;;
84054;SDS011;74141;51.504;7.122;2023-12-20T04:51:35;18.30;;;5.83;;
84054;SDS011;74141;51.504;7.122;2023-12-20T04:54:01;13.93;;;6.28;;
84054;SDS011;74141;51.504;7.122;2023-12-20T04:56:26;16.20;;;5.30;;
84054;SDS011;74141;51.504;7.122;2023-12-20T04:58:52;12.77;;;5.55;;
84054;SDS011;74141;51.504;7.122;2023-12-20T05:01:17;19.63;;;7.10;;
84054;SDS011;74141;51.504;7.122;2023-12-20T05:03:43;16.20;;;6.30;;
84054;SDS011;74141;51.504;7.122;2023-12-20T05:06:09;16.40;;;6.60;;
84054;SDS011;74141;51.504;7.122;2023-12-20T05:08:34;14.57;;;5.80;;
84054;SDS011;74141;51.504;7.122;2023-12-20T05:11:00;13.60;;;5.63;;
84054;SDS011;74141;51.504;7.122;2023-12-20T05:13:25;18.73;;;6.57;;
84054;SDS011;74141;51.504;7.122;2023-12-20T05:15:50;20.93;;;7.07;;
84054;SDS011;74141;51.504;7.122;2023-12-20T05:18:16;16.48;;;6.78;;
84054;SDS011;74141;51.504;7.122;2023-12-20T05:20:41;28.77;;;6.57;;
84054;SDS011;74141;51.504;7.122;2023-12-20T05:23:06;14.85;;;6.53;;
84054;SDS011;74141;51.504;7.122;2023-12-20T05:25:32;11.50;;;5.90;;
84054;SDS011;74141;51.504;7.122;2023-12-20T05:27:57;23.13;;;6.25;;
84054;SDS011;74141;51.504;7.122;2023-12-20T05:30:22;16.33;;;7.43;;
84054;SDS011;74141;51.504;7.122;2023-12-20T05:32:48;19.67;;;7.18;;
84054;SDS011;74141;51.504;7.122;2023-12-20T05:35:13;19.38;;;6.93;;
84054;SDS011;74141;51.504;7.122;2023-12-20T05:37:38;21.80;;;6.82;;
84054;SDS011;74141;51.504;7.122;2023-12-20T05:40:04;14.70;;;6.03;;
84054;SDS011;74141;51.504;7.122;2023-12-20T05:42:30;19.50;;;8.25;;
84054;SDS011;74141;51.504;7.122;2023-12-20T05:44:55;16.70;;;7.23;;
84054;SDS011;74141;51.504;7.122;2023-12-20T05:47:20;15.32;;;8.25;;
84054;SDS011;74141;51.504;7.122;2023-12-20T05:49:46;19.83;;;7.45;;
84054;SDS011;74141;51.504;7.122;2023-12-20T05:52:11;16.63;;;6.55;;
84054;SDS011;74141;51.504;7.122;2023-12-20T05:54:36;30.80;;;8.77;;
84054;SDS011;74141;51.504;7.122;2023-12-20T05:57:02;19.17;;;7.20;;
84054;SDS011;74141;51.504;7.122;2023-12-20T05:59:27;21.55;;;7.38;;
84054;SDS011;74141;51.504;7.122;2023-12-20T06:01:52;18.60;;;7.18;;
84054;SDS011;74141;51.504;7.122;2023-12-20T06:04:18;15.70;;;6.53;;
84054;SDS011;74141;51.504;7.122;2023-12-20T06:06:43;12.03;;;5.93;;
84054;SDS011;74141;51.504;7.122;2023-12-20T06:09:09;15.02;;;6.70;;
84054;SDS011;74141;51.504;7.122;2023-12-20T06:11:35;21.98;;;7.25;;
84054;SDS011;74141;51.504;7.122;2023-12-20T06:14:00;24.67;;;7.15;;
84054;SDS011;74141;51.504;7.122;2023-12-20T06:16:25;24.30;;;7.50;;
84054;SDS011;74141;51.504;7.122;2023-12-20T06:18:50;20.13;;;6.50;;
84054;SDS011;74141;51.504;7.122;2023-12-20T06:21:16;19.67;;;6.83;;
84054;SDS011;74141;51.504;7.122;2023-12-20T06:23:41;16.27;;;6.70;;
84054;SDS011;74141;51.504;7.122;2023-12-20T06:26:06;23.75;;;7.72;;
84054;SDS011;74141;51.504;7.122;2023-12-20T06:28:32;22.90;;;6.70;;
84054;SDS011;74141;51.504;7.122;2023-12-20T06:30:57;24.70;;;7.27;;
84054;SDS011;74141;51.504;7.122;2023-12-20T06:33:22;18.83;;;6.00;;
84054;SDS011;74141;51.504;7.122;2023-12-20T06:35:49;18.30;;;6.15;;
84054;SDS011;74141;51.504;7.122;2023-12-20T06:38:14;29.05;;;8.38;;
84054;SDS011;74141;51.504;7.122;2023-12-20T06:40:39;18.80;;;6.75;;
84054;SDS011;74141;51.504;7.122;2023-12-20T06:43:05;26.23;;;8.77;;
84054;SDS011;74141;51.504;7.122;2023-12-20T06:45:31;21.40;;;6.53;;
84054;SDS011;74141;51.504;7.122;2023-12-20T06:47:57;15.55;;;7.15;;
84054;SDS011;74141;51.504;7.122;2023-12-20T06:50:23;14.80;;;6.10;;
84054;SDS011;74141;51.504;7.122;2023-12-20T06:52:48;23.30;;;7.82;;
84054;SDS011;74141;51.504;7.122;2023-12-20T06:55:14;11.82;;;6.03;;
84054;SDS011;74141;51.504;7.122;2023-12-20T06:57:39;18.63;;;7.07;;
84054;SDS011;74141;51.504;7.122;2023-12-20T07:00:04;16.90;;;6.55;;
84054;SDS011;74141;51.504;7.122;2023-12-20T07:02:30;17.00;;;6.13;;
84054;SDS011;74141;51.504;7.122;2023-12-20T07:04:56;24.65;;;6.72;;
84054;SDS011;74141;51.504;7.122;2023-12-20T07:07:22;27.95;;;6.30;;
84054;SDS011;74141;51.504;7.122;2023-12-20T07:09:49;17.80;;;7.40;;
84054;SDS011;74141;51.504;7.122;2023-12-20T07:12:14;15.15;;;6.68;;
84054;SDS011;74141;51.504;7.122;2023-12-20T07:14:40;19.20;;;8.32;;
84054;SDS011;74141;51.504;7.122;2023-12-20T07:17:05;19.90;;;7.85;;
84054;SDS011;74141;51.504;7.122;2023-12-20T07:19:36;13.10;;;7.15;;
84054;SDS011;74141;51.504;7.122;2023-12-20T07:22:02;20.30;;;6.55;;
84054;SDS011;74141;51.504;7.122;2023-12-20T07:24:27;16.75;;;6.45;;
84054;SDS011;74141;51.504;7.122;2023-12-20T07:26:52;14.77;;;5.97;;
84054;SDS011;74141;51.504;7.122;2023-12-20T07:29:17;24.70;;;7.87;;
84054;SDS011;74141;51.504;7.122;2023-12-20T07:31:43;18.03;;;6.83;;
84054;SDS011;74141;51.504;7.122;2023-12-20T07:34:08;17.47;;;6.97;;
84054;SDS011;74141;51.504;7.122;2023-12-20T07:36:33;17.97;;;7.70;;
84054;SDS011;74141;51.504;7.122;2023-12-20T07:38:58;16.23;;;6.25;;
84054;SDS011;74141;51.504;7.122;2023-12-20T07:41:24;20.47;;;7.57;;
84054;SDS011;74141;51.504;7.122;2023-12-20T07:43:49;18.30;;;6.15;;
84054;SDS011;74141;51.504;7.122;2023-12-20T07:46:14;17.30;;;6.70;;
84054;SDS011;74141;51.504;7.122;2023-12-20T07:48:40;17.13;;;6.93;;
84054;SDS011;74141;51.504;7.122;2023-12-20T07:51:06;14.60;;;5.65;;
84054;SDS011;74141;51.504;7.122;2023-12-20T07:53:33;17.23;;;7.07;;
84054;SDS011;74141;51.504;7.122;2023-12-20T07:55:59;17.80;;;6.63;;
84054;SDS011;74141;51.504;7.122;2023-12-20T07:58:24;16.70;;;6.20;;
84054;SDS011;74141;51.504;7.122;2023-12-20T08:00:49;16.30;;;7.27;;
84054;SDS011;74141;51.504;7.122;2023-12-20T08:03:15;17.90;;;5.97;;
84054;SDS011;74141;51.504;7.122;2023-12-20T08:05:41;13.63;;;6.35;;
84054;SDS011;74141;51.504;7.122;2023-12-20T08:08:06;13.67;;;6.67;;
84054;SDS011;74141;51.504;7.122;2023-12-20T08:10:31;15.73;;;6.13;;
84054;SDS011;74141;51.504;7.122;2023-12-20T08:12:57;12.70;;;6.07;;
84054;SDS011;74141;51.504;7.122;2023-12-20T08:15:22;14.18;;;6.22;;
84054;SDS011;74141;51.504;7.122;2023-12-20T08:17:48;17.38;;;6.18;;
84054;SDS011;74141;51.504;7.122;2023-12-20T08:20:15;11.57;;;5.68;;
84054;SDS011;74141;51.504;7.122;2023-12-20T08:22:41;19.25;;;6.57;;
84054;SDS011;74141;51.504;7.122;2023-12-20T08:25:06;16.97;;;6.37;;
84054;SDS011;74141;51.504;7.122;2023-12-20T08:27:32;15.38;;;6.45;;
84054;SDS011;74141;51.504;7.122;2023-12-20T08:29:57;20.70;;;6.67;;
84054;SDS011;74141;51.504;7.122;2023-12-20T08:32:24;22.35;;;7.25;;
84054;SDS011;74141;51.504;7.122;2023-12-20T08:34:51;14.82;;;6.85;;
84054;SDS011;74141;51.504;7.122;2023-12-20T08:37:16;24.35;;;7.43;;
84054;SDS011;74141;51.504;7.122;2023-12-20T08:39:41;16.60;;;6.40;;
84054;SDS011;74141;51.504;7.122;2023-12-20T08:42:08;11.38;;;6.55;;
84054;SDS011;74141;51.504;7.122;2023-12-20T08:44:33;15.30;;;6.03;;
84054;SDS011;74141;51.504;7.122;2023-12-20T08:46:59;12.80;;;6.13;;
84054;SDS011;74141;51.504;7.122;2023-12-20T08:49:24;20.13;;;6.93;;
84054;SDS011;74141;51.504;7.122;2023-12-20T08:51:50;17.10;;;6.93;;
84054;SDS011;74141;51.504;7.122;2023-12-20T08:54:15;21.65;;;6.28;;
84054;SDS011;74141;51.504;7.122;2023-12-20T08:56:42;13.93;;;5.47;;
84054;SDS011;74141;51.504;7.122;2023-12-20T08:59:08;18.20;;;6.78;;
84054;SDS011;74141;51.504;7.122;2023-12-20T09:01:34;20.33;;;5.72;;
84054;SDS011;74141;51.504;7.122;2023-12-20T09:04:01;11.98;;;5.18;;
84054;SDS011;74141;51.504;7.122;2023-12-20T09:06:26;17.38;;;6.30;;
84054;SDS011;74141;51.504;7.122;2023-12-20T09:08:51;26.57;;;6.50;;
84054;SDS011;74141;51.504;7.122;2023-12-20T09:11:16;24.77;;;5.93;;
84054;SDS011;74141;51.504;7.122;2023-12-20T09:13:42;9.38;;;4.57;;
84054;SDS011;74141;51.504;7.122;2023-12-20T09:16:09;8.15;;;5.30;;
84054;SDS011;74141;51.504;7.122;2023-12-20T09:18:34;17.67;;;6.45;;
84054;SDS011;74141;51.504;7.122;2023-12-20T09:21:00;17.05;;;5.65;;
84054;SDS011;74141;51.504;7.122;2023-12-20T09:23:25;13.70;;;5.40;;
84054;SDS011;74141;51.504;7.122;2023-12-20T09:25:50;15.32;;;5.00;;
84054;SDS011;74141;51.504;7.122;2023-12-20T09:28:16;18.83;;;6.25;;
84054;SDS011;74141;51.504;7.122;2023-12-20T09:30:41;19.60;;;6.30;;
84054;SDS011;74141;51.504;7.122;2023-12-20T09:33:07;12.00;;;5.55;;
84054;SDS011;74141;51.504;7.122;2023-12-20T09:35:32;13.07;;;5.82;;
84054;SDS011;74141;51.504;7.122;2023-12-20T09:37:58;16.75;;;5.32;;
84054;SDS011;74141;51.504;7.122;2023-12-20T09:40:23;15.38;;;5.63;;
84054;SDS011;74141;51.504;7.122;2023-12-20T09:42:56;15.75;;;5.43;;
84054;SDS011;74141;51.504;7.122;2023-12-20T09:45:22;11.80;;;5.07;;
84054;SDS011;74141;51.504;7.122;2023-12-20T09:47:49;11.65;;;5.70;;
84054;SDS011;74141;51.504;7.122;2023-12-20T09:50:15;15.63;;;6.10;;
84054;SDS011;74141;51.504;7.122;2023-12-20T09:52:44;13.68;;;5.45;;
84054;SDS011;74141;51.504;7.122;2023-12-20T09:55:14;20.38;;;6.40;;
84054;SDS011;74141;51.504;7.122;2023-12-20T09:57:42;12.18;;;4.75;;
84054;SDS011;74141;51.504;7.122;2023-12-20T10:00:07;16.33;;;4.80;;
84054;SDS011;74141;51.504;7.122;2023-12-20T10:02:33;10.95;;;4.55;;
84054;SDS011;74141;51.504;7.122;2023-12-20T10:05:03;11.02;;;5.18;;
84054;SDS011;74141;51.504;7.122;2023-12-20T10:07:34;16.88;;;5.03;;
84054;SDS011;74141;51.504;7.122;2023-12-20T10:10:00;15.20;;;5.30;;
84054;SDS011;74141;51.504;7.122;2023-12-20T10:12:27;18.15;;;5.75;;
84054;SDS011;74141;51.504;7.122;2023-12-20T10:14:52;11.17;;;5.00;;
84054;SDS011;74141;51.504;7.122;2023-12-20T10:17:17;13.18;;;5.43;;
84054;SDS011;74141;51.504;7.122;2023-12-20T10:19:43;16.67;;;5.70;;
84054;SDS011;74141;51.504;7.122;2023-12-20T10:22:08;13.27;;;4.45;;
84054;SDS011;74141;51.504;7.122;2023-12-20T10:24:35;13.85;;;5.45;;
84054;SDS011;74141;51.504;7.122;2023-12-20T10:27:03;10.20;;;4.63;;
84054;SDS011;74141;51.504;7.122;2023-12-20T10:29:33;14.60;;;5.78;;
84054;SDS011;74141;51.504;7.122;2023-12-20T10:31:59;13.15;;;4.75;;
84054;SDS011;74141;51.504;7.122;2023-12-20T10:34:24;16.08;;;5.00;;
84054;SDS011;74141;51.504;7.122;2023-12-20T10:36:50;12.20;;;5.13;;
84054;SDS011;74141;51.504;7.122;2023-12-20T10:39:16;15.93;;;5.20;;
84054;SDS011;74141;51.504;7.122;2023-12-20T10:41:42;21.27;;;6.47;;
84054;SDS011;74141;51.504;7.122;2023-12-20T10:44:10;12.90;;;4.78;;
84054;SDS011;74141;51.504;7.122;2023-12-20T10:46:36;12.63;;;4.97;;
84054;SDS011;74141;51.504;7.122;2023-12-20T10:49:04;11.80;;;5.57;;
84054;SDS011;74141;51.504;7.122;2023-12-20T10:51:30;13.05;;;5.40;;
84054;SDS011;74141;51.504;7.122;2023-12-20T10:53:56;11.50;;;4.45;;
84054;SDS011;74141;51.504;7.122;2023-12-20T10:56:22;14.73;;;6.13;;
84054;SDS011;74141;51.504;7.122;2023-12-20T10:58:48;15.85;;;6.47;;
84054;SDS011;74141;51.504;7.122;2023-12-20T11:01:15;19.42;;;7.47;;
84054;SDS011;74141;51.504;7.122;2023-12-20T11:03:46;13.68;;;5.78;;
84054;SDS011;74141;51.504;7.122;2023-12-20T11:06:26;20.88;;;6.80;;
84054;SDS011;74141;51.504;7.122;2023-12-20T11:09:06;18.00;;;7.57;;
84054;SDS011;74141;51.504;7.122;2023-12-20T11:11:50;18.98;;;6.15;;
84054;SDS011;74141;51.504;7.122;2023-12-20T11:17:16;17.13;;;7.03;;
84054;SDS011;74141;51.504;7.122;2023-12-20T11:22:17;21.35;;;7.03;;
84054;SDS011;74141;51.504;7.122;2023-12-20T11:24:44;24.77;;;7.38;;
84054;SDS011;74141;51.504;7.122;2023-12-20T11:27:09;11.77;;;6.20;;
84054;SDS011;74141;51.504;7.122;2023-12-20T11:29:35;26.93;;;6.07;;
84054;SDS011;74141;51.504;7.122;2023-12-20T11:32:28;11.73;;;5.82;;
84054;SDS011;74141;51.504;7.122;2023-12-20T11:34:53;15.00;;;7.00;;
84054;SDS011;74141;51.504;7.122;2023-12-20T11:39:45;15.13;;;6.53;;
84054;SDS011;74141;51.504;7.122;2023-12-20T11:42:10;10.88;;;5.25;;
84054;SDS011;74141;51.504;7.122;2023-12-20T11:44:36;13.18;;;5.82;;
84054;SDS011;74141;51.504;7.122;2023-12-20T11:47:01;17.98;;;6.38;;
84054;SDS011;74141;51.504;7.122;2023-12-20T11:49:27;15.73;;;6.25;;
84054;SDS011;74141;51.504;7.122;2023-12-20T11:51:55;14.48;;;6.63;;
84054;SDS011;74141;51.504;7.122;2023-12-20T11:54:21;12.73;;;6.78;;
84054;SDS011;74141;51.504;7.122;2023-12-20T11:56:46;21.42;;;7.50;;
84054;SDS011;74141;51.504;7.122;2023-12-20T11:59:12;19.88;;;7.25;;
84054;SDS011;74141;51.504;7.122;2023-12-20T12:01:38;14.02;;;6.57;;
84054;SDS011;74141;51.504;7.122;2023-12-20T12:04:04;20.33;;;6.80;;
84054;SDS011;74141;51.504;7.122;2023-12-20T12:06:32;19.42;;;8.73;;
84054;SDS011;74141;51.504;7.122;2023-12-20T12:08:58;20.50;;;6.93;;
84054;SDS011;74141;51.504;7.122;2023-12-20T12:11:23;15.73;;;8.18;;
84054;SDS011;74141;51.504;7.122;2023-12-20T12:13:49;21.23;;;7.90;;
84054;SDS011;74141;51.504;7.122;2023-12-20T12:16:19;18.33;;;7.72;;
84054;SDS011;74141;51.504;7.122;2023-12-20T12:18:45;21.95;;;8.70;;
84054;SDS011;74141;51.504;7.122;2023-12-20T12:21:10;19.20;;;8.50;;
84054;SDS011;74141;51.504;7.122;2023-12-20T12:23:43;20.38;;;6.72;;
84054;SDS011;74141;51.504;7.122;2023-12-20T12:26:08;24.75;;;8.70;;
84054;SDS011;74141;51.504;7.122;2023-12-20T12:28:34;25.33;;;8.27;;
84054;SDS011;74141;51.504;7.122;2023-12-20T12:30:59;20.05;;;7.60;;
84054;SDS011;74141;51.504;7.122;2023-12-20T12:33:25;21.60;;;7.35;;
84054;SDS011;74141;51.504;7.122;2023-12-20T12:35:51;18.95;;;7.93;;
84054;SDS011;74141;51.504;7.122;2023-12-20T12:38:19;14.93;;;7.38;;
84054;SDS011;74141;51.504;7.122;2023-12-20T12:40:46;25.25;;;7.55;;
84054;SDS011;74141;51.504;7.122;2023-12-20T12:43:11;23.88;;;9.93;;
84054;SDS011;74141;51.504;7.122;2023-12-20T12:45:37;15.15;;;6.85;;
84054;SDS011;74141;51.504;7.122;2023-12-20T12:48:03;19.10;;;7.15;;
84054;SDS011;74141;51.504;7.122;2023-12-20T12:50:30;21.80;;;7.40;;
84054;SDS011;74141;51.504;7.122;2023-12-20T12:52:56;16.30;;;7.35;;
84054;SDS011;74141;51.504;7.122;2023-12-20T12:55:21;23.58;;;7.18;;
84054;SDS011;74141;51.504;7.122;2023-12-20T12:57:46;15.80;;;6.23;;
84054;SDS011;74141;51.504;7.122;2023-12-20T13:00:12;21.42;;;5.88;;
84054;SDS011;74141;51.504;7.122;2023-12-20T13:02:38;15.90;;;5.88;;
84054;SDS011;74141;51.504;7.122;2023-12-20T13:05:06;13.38;;;6.63;;
84054;SDS011;74141;51.504;7.122;2023-12-20T13:07:32;16.77;;;6.38;;
84054;SDS011;74141;51.504;7.122;2023-12-20T13:09:58;12.65;;;5.90;;
84054;SDS011;74141;51.504;7.122;2023-12-20T13:12:23;16.20;;;5.40;;
84054;SDS011;74141;51.504;7.122;2023-12-20T13:14:48;22.17;;;6.50;;
84054;SDS011;74141;51.504;7.122;2023-12-20T13:17:14;7.95;;;5.90;;
84054;SDS011;74141;51.504;7.122;2023-12-20T13:19:40;17.63;;;6.50;;
84054;SDS011;74141;51.504;7.122;2023-12-20T13:22:05;17.45;;;7.28;;
84054;SDS011;74141;51.504;7.122;2023-12-20T13:24:31;8.02;;;5.47;;
84054;SDS011;74141;51.504;7.122;2023-12-20T13:26:57;10.38;;;6.05;;
84054;SDS011;74141;51.504;7.122;2023-12-20T13:29:23;21.92;;;6.80;;
84054;SDS011;74141;51.504;7.122;2023-12-20T13:31:49;13.60;;;5.60;;
84054;SDS011;74141;51.504;7.122;2023-12-20T13:34:14;16.98;;;7.05;;
84054;SDS011;74141;51.504;7.122;2023-12-20T13:36:42;13.57;;;7.53;;
84054;SDS011;74141;51.504;7.122;2023-12-20T13:39:10;17.95;;;7.72;;
84054;SDS011;74141;51.504;7.122;2023-12-20T13:41:37;17.67;;;7.53;;
84054;SDS011;74141;51.504;7.122;2023-12-20T13:44:02;11.38;;;7.28;;
84054;SDS011;74141;51.504;7.122;2023-12-20T13:46:28;15.00;;;6.50;;
84054;SDS011;74141;51.504;7.122;2023-12-20T13:48:53;11.95;;;7.90;;
84054;SDS011;74141;51.504;7.122;2023-12-20T13:51:19;14.07;;;8.57;;
84054;SDS011;74141;51.504;7.122;2023-12-20T13:53:45;15.80;;;8.07;;
84054;SDS011;74141;51.504;7.122;2023-12-20T13:56:11;13.80;;;8.45;;
84054;SDS011;74141;51.504;7.122;2023-12-20T13:58:36;16.80;;;8.88;;
84054;SDS011;74141;51.504;7.122;2023-12-20T14:01:01;13.25;;;7.85;;
84054;SDS011;74141;51.504;7.122;2023-12-20T14:03:27;12.90;;;8.90;;
84054;SDS011;74141;51.504;7.122;2023-12-20T14:05:52;19.70;;;9.95;;
84054;SDS011;74141;51.504;7.122;2023-12-20T14:08:17;18.77;;;8.87;;
84054;SDS011;74141;51.504;7.122;2023-12-20T14:10:43;22.10;;;11.20;;
84054;SDS011;74141;51.504;7.122;2023-12-20T14:13:08;16.07;;;9.83;;
84054;SDS011;74141;51.504;7.122;2023-12-20T14:15:33;17.27;;;10.60;;
84054;SDS011;74141;51.504;7.122;2023-12-20T14:18:03;17.95;;;9.30;;
84054;SDS011;74141;51.504;7.122;2023-12-20T14:20:31;17.33;;;10.32;;
84054;SDS011;74141;51.504;7.122;2023-12-20T14:22:57;21.58;;;12.05;;
84054;SDS011;74141;51.504;7.122;2023-12-20T14:25:22;13.88;;;9.30;;
84054;SDS011;74141;51.504;7.122;2023-12-20T14:27:48;15.63;;;8.75;;
84054;SDS011;74141;51.504;7.122;2023-12-20T14:30:13;16.27;;;8.20;;
84054;SDS011;74141;51.504;7.122;2023-12-20T14:32:39;17.50;;;8.07;;
84054;SDS011;74141;51.504;7.122;2023-12-20T14:35:08;18.00;;;8.50;;